Yong An 1 — 3FLS5 — position and weather

sailwx.info

Track history (hours):
 
Tides and Currents Weather Stations Pressure Air Temp Water Temp Dewpoint Dewpoint Depression Visibility Wind Speed Wind Dir Waves Ship Positions

Yong An 1

Last reported at 2017-Dec-04 10:09 UTC. Time now 2017-Dec-15 16:07 UTC.
Position N 52°26' E 003°35'.
Warning: this ship's position is 11 days out of date.

Length 228 m; draft 7.6 m.

Type: Cargo ship. MMSI: 374092000.

Date/timePositionNaut miles runAvg speedWind from/ knotsBaromVisibWave heightAir tempDewpointWater temp
2017-Dec-04 10:09N 52°26' E 003°35'313.6
2017-Dec-04 09:57N 52°27' E 003°39'613.6
2017-Dec-04 09:30N 52°31' E 003°47'612.6
2017-Dec-04 09:00N 52°31' E 003°57'612.5
2017-Dec-04 08:30N 52°31' E 004°07'612.2
2017-Dec-04 08:00N 52°30' E 004°17'510.6
2017-Dec-04 07:30N 52°29' E 004°26'5 9.4
2017-Dec-04 07:00N 52°28' E 004°33'2 4.2
2017-Dec-04 06:30N 52°28' E 004°37'0 1.0
2017-Dec-04 06:00N 52°28' E 004°37'2 4.8
2017-Dec-04 05:30N 52°27' E 004°41'3 5.9
2017-Dec-04 05:00N 52°26' E 004°45'2 4.4
2017-Dec-04 04:31N 52°25' E 004°49'0 0.9
2017-Dec-04 04:00N 52°25' E 004°49'0 0.0
2017-Dec-04 03:30N 52°25' E 004°49'0 0.0
2017-Dec-04 03:00N 52°25' E 004°49'0 0.0
2017-Dec-04 02:30N 52°25' E 004°49'0 0.0
2017-Dec-04 02:00N 52°25' E 004°49'0 0.0
2017-Dec-04 01:30N 52°25' E 004°49'0 0.0
2017-Dec-04 01:00N 52°25' E 004°49'0 0.0
2017-Dec-04 00:30N 52°25' E 004°49'0 0.0
2017-Dec-04 00:00N 52°25' E 004°49'0 0.0
2017-Dec-03 23:30N 52°25' E 004°49'0 0.0
2017-Dec-03 23:00N 52°25' E 004°49'0 0.0
2017-Dec-03 22:30N 52°25' E 004°49'0 0.0
2017-Dec-03 22:00N 52°25' E 004°49'0 0.0
2017-Dec-03 21:27N 52°25' E 004°49'0 0.0
2017-Dec-03 21:00N 52°25' E 004°49'0 0.0
2017-Dec-03 20:30N 52°25' E 004°49'0 0.0
2017-Dec-03 20:00N 52°25' E 004°49'0 0.0
2017-Dec-03 19:30N 52°25' E 004°49'0 0.0
2017-Dec-03 19:00N 52°25' E 004°49'0 0.0
2017-Dec-03 18:27N 52°25' E 004°49'0 0.0
2017-Dec-03 18:00N 52°25' E 004°49'0 0.0
2017-Dec-03 17:30N 52°25' E 004°49'0 0.0
2017-Dec-03 17:00N 52°25' E 004°49'0 0.0
2017-Dec-03 16:30N 52°25' E 004°49'0 0.0
2017-Dec-03 16:00N 52°25' E 004°49'0 0.0
2017-Dec-03 15:24N 52°25' E 004°49'0 0.0
2017-Dec-03 15:00N 52°25' E 004°49'0 0.0
2017-Dec-03 14:30N 52°25' E 004°49'0 0.0
2017-Dec-03 14:00N 52°25' E 004°49'0 0.0
2017-Dec-03 13:30N 52°25' E 004°49'0 0.0
2017-Dec-03 12:57N 52°25' E 004°49'0 0.0
2017-Dec-03 12:30N 52°25' E 004°49'0 0.0
2017-Dec-03 12:00N 52°25' E 004°49'0 0.0
2017-Dec-03 11:30N 52°25' E 004°49'0 0.0
2017-Dec-03 11:00N 52°25' E 004°49'0 0.0
2017-Dec-03 10:30N 52°25' E 004°49'0 0.0
2017-Dec-03 10:00N 52°25' E 004°49'0 0.0
2017-Dec-03 09:30N 52°25' E 004°49'0 0.0
2017-Dec-03 08:57N 52°25' E 004°49'0 0.0
2017-Dec-03 08:30N 52°25' E 004°49'0 0.0
2017-Dec-03 07:57N 52°25' E 004°49'0 0.0
2017-Dec-03 07:27N 52°25' E 004°49'0 0.1
2017-Dec-03 07:00N 52°25' E 004°49'0 0.0
2017-Dec-03 06:30N 52°25' E 004°49'0 0.0
2017-Dec-03 06:00N 52°25' E 004°49'0 0.0
2017-Dec-03 05:30N 52°25' E 004°49'0 0.0
2017-Dec-03 05:00N 52°25' E 004°49'0 0.0
2017-Dec-03 04:30N 52°25' E 004°49'0 0.0
2017-Dec-03 03:57N 52°25' E 004°49'0 0.0
2017-Dec-03 03:24N 52°25' E 004°49'0 0.0
2017-Dec-03 03:00N 52°25' E 004°49'0 0.0
2017-Dec-03 02:30N 52°25' E 004°49'0 0.0
2017-Dec-03 01:57N 52°25' E 004°49'0 0.0
2017-Dec-03 01:30N 52°25' E 004°49'0 0.0
2017-Dec-03 01:00N 52°25' E 004°49'0 0.0
2017-Dec-03 00:30N 52°25' E 004°49'0 0.0
2017-Dec-03 00:00N 52°25' E 004°49'0 0.0
2017-Dec-02 23:30N 52°25' E 004°49'0 0.0
2017-Dec-02 23:00N 52°25' E 004°49'0 0.0
2017-Dec-02 22:30N 52°25' E 004°49'0 0.0
2017-Dec-02 22:00N 52°25' E 004°49'0 0.0
2017-Dec-02 21:27N 52°25' E 004°49'0 0.0
2017-Dec-02 21:00N 52°25' E 004°49'0 0.0
2017-Dec-02 20:30N 52°25' E 004°49'0 0.0
2017-Dec-02 20:00N 52°25' E 004°49'0 0.0
2017-Dec-02 19:30N 52°25' E 004°49'0 0.0
2017-Dec-02 18:51N 52°25' E 004°49'0 0.0
2017-Dec-02 18:30N 52°25' E 004°49'0 0.0
2017-Dec-02 17:57N 52°25' E 004°49'0 0.0
2017-Dec-02 17:30N 52°25' E 004°49'0 0.0
2017-Dec-02 17:00N 52°25' E 004°49'0 0.0
2017-Dec-02 16:30N 52°25' E 004°49'0 0.0
2017-Dec-02 16:00N 52°25' E 004°49'0 0.0
2017-Dec-02 15:30N 52°25' E 004°49'0 0.0
2017-Dec-02 15:00N 52°25' E 004°49'0 0.0
2017-Dec-02 14:30N 52°25' E 004°49'0 0.0
2017-Dec-02 14:00N 52°25' E 004°49'0 0.0
2017-Dec-02 13:30N 52°25' E 004°49'0 0.0
2017-Dec-02 13:00N 52°25' E 004°49'0 0.0
2017-Dec-02 12:27N 52°25' E 004°49'0 0.0
2017-Dec-02 12:00N 52°25' E 004°49'0 0.0
2017-Dec-02 11:30N 52°25' E 004°49'0 0.0
2017-Dec-02 11:00N 52°25' E 004°49'0 0.0
2017-Dec-02 10:30N 52°25' E 004°49'0 0.0
2017-Dec-02 10:00N 52°25' E 004°49'0 0.0
2017-Dec-02 09:30N 52°25' E 004°49'0 0.0
2017-Dec-02 09:00N 52°25' E 004°49'0 0.0
2017-Dec-02 08:30N 52°25' E 004°49'0 0.0
2017-Dec-02 08:00N 52°25' E 004°49'0 0.0
2017-Dec-02 07:30N 52°25' E 004°49'0 0.0
2017-Dec-02 07:00N 52°25' E 004°49'0 0.0
2017-Dec-02 06:30N 52°25' E 004°49'0 0.0
2017-Dec-02 06:00N 52°25' E 004°49'0 0.0
2017-Dec-02 05:30N 52°25' E 004°49'0 0.0
2017-Dec-02 05:00N 52°25' E 004°49'0 0.0
2017-Dec-02 04:30N 52°25' E 004°49'0 0.0
2017-Dec-02 04:00N 52°25' E 004°49'0 0.0
2017-Dec-02 03:30N 52°25' E 004°49'0 0.0
2017-Dec-02 03:00N 52°25' E 004°49'0 0.0
2017-Dec-02 02:30N 52°25' E 004°49'0 0.0
2017-Dec-02 01:57N 52°25' E 004°49'0 0.0
2017-Dec-02 01:30N 52°25' E 004°49'0 0.0
2017-Dec-02 01:00N 52°25' E 004°49'0 0.0
2017-Dec-02 00:27N 52°25' E 004°49'0 0.0
2017-Dec-02 00:00N 52°25' E 004°49'0 0.0
2017-Dec-01 23:30N 52°25' E 004°49'0 0.0
2017-Dec-01 23:00N 52°25' E 004°49'0 0.0
2017-Dec-01 22:30N 52°25' E 004°49'0 0.0
2017-Dec-01 22:00N 52°25' E 004°49'0 0.0
2017-Dec-01 21:27N 52°25' E 004°49'0 0.0
2017-Dec-01 21:00N 52°25' E 004°49'0 0.0
2017-Dec-01 20:30N 52°25' E 004°49'0 0.0
2017-Dec-01 20:00N 52°25' E 004°49'0 0.0
2017-Dec-01 19:30N 52°25' E 004°49'0 0.0
2017-Dec-01 19:00N 52°25' E 004°49'0 0.0
2017-Dec-01 18:27N 52°25' E 004°49'0 0.0
2017-Dec-01 18:00N 52°25' E 004°49'0 0.0
2017-Dec-01 17:30N 52°25' E 004°49'0 0.0
2017-Dec-01 17:00N 52°25' E 004°49'0 0.0
2017-Dec-01 16:30N 52°25' E 004°49'0 0.0
2017-Dec-01 15:57N 52°25' E 004°49'0 0.0
2017-Dec-01 15:30N 52°25' E 004°49'0 0.0
2017-Dec-01 15:00N 52°25' E 004°49'0 0.0
2017-Dec-01 14:27N 52°25' E 004°49'0 0.0
2017-Dec-01 14:00N 52°25' E 004°49'0 0.0
2017-Dec-01 13:30N 52°25' E 004°49'0 0.0
2017-Dec-01 13:00N 52°25' E 004°49'0 0.0
2017-Dec-01 12:30N 52°25' E 004°49'0 0.0
2017-Dec-01 12:00N 52°25' E 004°49'0 0.0
2017-Dec-01 11:30N 52°25' E 004°49'0 0.0
2017-Dec-01 11:00N 52°25' E 004°49'0 0.0
2017-Dec-01 10:30N 52°25' E 004°49'0 0.0
2017-Dec-01 10:00N 52°25' E 004°49'0 0.0
2017-Dec-01 09:30N 52°25' E 004°49'0 0.0
2017-Dec-01 09:00N 52°25' E 004°49'0 0.0
2017-Dec-01 08:30N 52°25' E 004°49'0 0.0
2017-Dec-01 08:00N 52°25' E 004°49'0 0.0
2017-Dec-01 07:30N 52°25' E 004°49'0 0.0
2017-Dec-01 07:00N 52°25' E 004°49'0 0.0
2017-Dec-01 06:30N 52°25' E 004°49'0 0.0
2017-Dec-01 06:00N 52°25' E 004°49'0 0.0
2017-Dec-01 05:30N 52°25' E 004°49'0 0.0
2017-Dec-01 04:54N 52°25' E 004°49'0 0.0
2017-Dec-01 04:15N 52°25' E 004°49'0 0.0
2017-Dec-01 04:00N 52°25' E 004°49'0 0.0
2017-Dec-01 03:30N 52°25' E 004°49'0 0.0
2017-Dec-01 03:00N 52°25' E 004°49'0 0.0
2017-Dec-01 02:30N 52°25' E 004°49'0 0.0
2017-Dec-01 02:00N 52°25' E 004°49'0 0.0
2017-Dec-01 01:30N 52°25' E 004°49'0 0.0
2017-Dec-01 01:00N 52°25' E 004°49'0 0.0
2017-Dec-01 00:30N 52°25' E 004°49'0 0.0
2017-Nov-30 23:57N 52°25' E 004°49'0 0.0
2017-Nov-30 23:30N 52°25' E 004°49'0 0.0
2017-Nov-30 23:00N 52°25' E 004°49'0 0.0
2017-Nov-30 22:30N 52°25' E 004°49'0 0.0
2017-Nov-30 21:54N 52°25' E 004°49'0 0.0
2017-Nov-30 21:30N 52°25' E 004°49'0 0.0
2017-Nov-30 21:00N 52°25' E 004°49'0 0.0
2017-Nov-30 20:30N 52°25' E 004°49'0 0.0
2017-Nov-30 20:00N 52°25' E 004°49'0 0.0
2017-Nov-30 19:30N 52°25' E 004°49'0 0.0
2017-Nov-30 19:00N 52°25' E 004°49'0 0.0
2017-Nov-30 18:30N 52°25' E 004°49'0 0.0
2017-Nov-30 17:54N 52°25' E 004°49'0 0.0
2017-Nov-30 17:30N 52°25' E 004°49'0 0.0
2017-Nov-30 17:00N 52°25' E 004°49'0 0.0
2017-Nov-30 16:30N 52°25' E 004°49'0 0.0
2017-Nov-30 16:00N 52°25' E 004°49'0 0.0
2017-Nov-30 15:30N 52°25' E 004°49'0 0.0
2017-Nov-30 14:57N 52°25' E 004°49'0 0.0
2017-Nov-30 14:30N 52°25' E 004°49'0 0.0
2017-Nov-30 14:00N 52°25' E 004°49'0 0.0
2017-Nov-30 13:30N 52°25' E 004°49'0 0.0
2017-Nov-30 13:00N 52°25' E 004°49'0 0.0
2017-Nov-30 12:30N 52°25' E 004°49'0 0.0
2017-Nov-30 11:51N 52°25' E 004°49'0 0.0
2017-Nov-30 11:18N 52°25' E 004°49'0 0.2
2017-Nov-30 10:36N 52°25' E 004°49'0 0.0
2017-Nov-30 10:30N 52°25' E 004°49'0 0.0
2017-Nov-30 10:00N 52°25' E 004°49'0 0.0
2017-Nov-30 09:30N 52°25' E 004°49'0 0.0
2017-Nov-30 08:54N 52°25' E 004°49'0 0.0
2017-Nov-30 07:12N 52°25' E 004°49'0 0.0
2017-Nov-30 06:54N 52°25' E 004°49'0 0.0
2017-Nov-30 06:24N 52°25' E 004°49'0 0.0
2017-Nov-30 05:48N 52°25' E 004°49'0 0.0
2017-Nov-30 04:39N 52°25' E 004°49'0 0.0
2017-Nov-30 04:27N 52°25' E 004°49'0 0.0
2017-Nov-30 03:36N 52°25' E 004°49'0 0.0
2017-Nov-30 03:21N 52°25' E 004°49'0 0.0
2017-Nov-30 02:57N 52°25' E 004°49'0 0.0
2017-Nov-30 02:15N 52°25' E 004°49'0 0.0
2017-Nov-30 01:57N 52°25' E 004°49'0 0.0
2017-Nov-30 01:27N 52°25' E 004°49'0 0.0
2017-Nov-30 00:57N 52°25' E 004°49'0 0.0
2017-Nov-30 00:21N 52°25' E 004°49'0 0.0
2017-Nov-29 23:57N 52°25' E 004°49'0 0.0
2017-Nov-29 23:30N 52°25' E 004°49'0 0.0
2017-Nov-29 22:58N 52°25' E 004°49'0 0.0
2017-Nov-29 22:28N 52°25' E 004°49'0 0.0
2017-Nov-29 21:58N 52°25' E 004°49'0 0.0
2017-Nov-29 21:28N 52°25' E 004°49'0 0.0
2017-Nov-29 20:58N 52°25' E 004°49'0 0.0
2017-Nov-29 20:28N 52°25' E 004°49'0 0.0
2017-Nov-29 19:55N 52°25' E 004°49'0 0.0
2017-Nov-29 19:28N 52°25' E 004°49'0 0.0
2017-Nov-29 18:58N 52°25' E 004°49'0 0.0
2017-Nov-29 18:28N 52°25' E 004°49'0 0.0
2017-Nov-29 17:58N 52°25' E 004°49'0 0.0
2017-Nov-29 17:28N 52°25' E 004°49'0 0.0
2017-Nov-29 16:58N 52°25' E 004°49'0 0.0
2017-Nov-29 16:28N 52°25' E 004°49'0 0.0
2017-Nov-29 15:58N 52°25' E 004°49'0 0.0
2017-Nov-29 15:25N 52°25' E 004°49'0 0.0
2017-Nov-29 14:52N 52°25' E 004°49'0 0.0
2017-Nov-29 14:28N 52°25' E 004°49'0 0.0
2017-Nov-29 13:55N 52°25' E 004°49'0 0.0
2017-Nov-29 13:25N 52°25' E 004°49'0 0.0
2017-Nov-29 12:58N 52°25' E 004°49'0 0.0
2017-Nov-29 12:28N 52°25' E 004°49'0 0.0
2017-Nov-29 11:52N 52°25' E 004°49'0 0.0
2017-Nov-29 11:25N 52°25' E 004°49'0 0.0
2017-Nov-29 10:52N 52°25' E 004°49'0 0.0
2017-Nov-29 10:28N 52°25' E 004°49'0 0.0
2017-Nov-29 09:25N 52°25' E 004°49'0 0.0
2017-Nov-29 08:46N 52°25' E 004°49'0 0.0
2017-Nov-29 08:07N 52°25' E 004°49'0 0.0
2017-Nov-29 07:22N 52°25' E 004°49'0 0.0
2017-Nov-29 06:40N 52°25' E 004°49'0 0.0
2017-Nov-29 06:22N 52°25' E 004°49'0 0.0
2017-Nov-29 05:52N 52°25' E 004°49'0 0.0
2017-Nov-29 05:07N 52°25' E 004°49'0 0.0
2017-Nov-29 04:55N 52°25' E 004°49'0 0.0
2017-Nov-29 04:28N 52°25' E 004°49'0 0.0
2017-Nov-29 03:58N 52°25' E 004°49'0 0.0
2017-Nov-29 03:25N 52°25' E 004°49'0 0.0
2017-Nov-29 02:49N 52°25' E 004°49'0 0.0
2017-Nov-29 02:28N 52°25' E 004°49'0 0.0
2017-Nov-29 01:43N 52°25' E 004°49'0 0.0
2017-Nov-29 01:28N 52°25' E 004°49'0 0.0
2017-Nov-29 00:58N 52°25' E 004°49'0 0.0
2017-Nov-28 23:22N 52°25' E 004°49'0 0.0
2017-Nov-28 22:37N 52°25' E 004°49'0 0.0
2017-Nov-28 21:31N 52°25' E 004°49'0 0.0
2017-Nov-28 21:10N 52°25' E 004°49'0 0.0
2017-Nov-28 20:01N 52°25' E 004°49'0 0.0
2017-Nov-28 19:55N 52°25' E 004°49'0 0.0
2017-Nov-28 19:22N 52°25' E 004°49'0 0.0
2017-Nov-28 18:55N 52°25' E 004°49'0 0.0
2017-Nov-28 18:19N 52°25' E 004°49'0 0.0
2017-Nov-28 17:55N 52°25' E 004°49'0 0.0
2017-Nov-28 17:28N 52°25' E 004°49'0 0.0
2017-Nov-28 16:55N 52°25' E 004°49'0 0.0
2017-Nov-28 16:22N 52°25' E 004°49'0 0.0
2017-Nov-28 14:55N 52°25' E 004°49'0 0.0
2017-Nov-28 14:22N 52°25' E 004°49'0 0.0
2017-Nov-28 13:55N 52°25' E 004°49'0 0.0
2017-Nov-28 13:16N 52°25' E 004°49'0 0.0
2017-Nov-28 12:55N 52°25' E 004°49'0 0.0
2017-Nov-28 12:22N 52°25' E 004°49'0 0.0
2017-Nov-28 11:43N 52°25' E 004°49'0 0.0
2017-Nov-28 11:28N 52°25' E 004°49'0 0.0
2017-Nov-28 10:58N 52°25' E 004°49'0 0.0
2017-Nov-28 10:28N 52°25' E 004°49'0 0.2
2017-Nov-28 10:00N 52°25' E 004°49'2 3.2
2017-Nov-28 09:31N 52°26' E 004°46'3 5.6
2017-Nov-28 09:00N 52°27' E 004°42'3 5.9
2017-Nov-28 08:30N 52°28' E 004°38'1 1.6
2017-Nov-28 08:00N 52°28' E 004°36'0 0.3
2017-Nov-28 07:30N 52°28' E 004°36'1 1.7
2017-Nov-28 07:00N 52°28' E 004°35'0 0.1
2017-Nov-28 06:21N 52°28' E 004°35'0 0.0
2017-Nov-28 05:15N 52°28' E 004°35'0 0.0
2017-Nov-28 04:30N 52°28' E 004°35'0 0.0
2017-Nov-28 04:00N 52°28' E 004°35'0 0.0
2017-Nov-28 03:30N 52°28' E 004°35'0 0.0
2017-Nov-28 02:57N 52°28' E 004°35'0 0.0
2017-Nov-28 02:18N 52°28' E 004°35'0 0.0
2017-Nov-28 01:45N 52°28' E 004°35'0 0.0
2017-Nov-28 01:00N 52°28' E 004°35'0 0.0
2017-Nov-28 00:24N 52°28' E 004°35'0 0.0
2017-Nov-27 23:51N 52°28' E 004°35'0 0.0
2017-Nov-27 23:27N 52°28' E 004°35'0 0.0
2017-Nov-27 22:57N 52°28' E 004°35'0 0.0
2017-Nov-27 22:30N 52°28' E 004°35'0 0.0
2017-Nov-27 22:00N 52°28' E 004°35'0 0.0
2017-Nov-27 21:12N 52°28' E 004°35'0 0.0
2017-Nov-27 20:51N 52°28' E 004°35'0 0.0
2017-Nov-27 20:30N 52°28' E 004°35'0 0.0
2017-Nov-27 19:54N 52°28' E 004°35'0 0.0
2017-Nov-27 19:21N 52°28' E 004°35'0 0.0
2017-Nov-27 19:00N 52°28' E 004°35'0 0.0
2017-Nov-27 18:21N 52°28' E 004°35'0 0.0
2017-Nov-27 17:57N 52°28' E 004°35'0 0.0
2017-Nov-27 17:18N 52°28' E 004°35'0 0.0
2017-Nov-27 16:57N 52°28' E 004°35'0 0.0
2017-Nov-27 16:27N 52°28' E 004°35'0 0.0
2017-Nov-27 15:42N 52°28' E 004°35'0 0.0
2017-Nov-27 15:15N 52°28' E 004°35'0 0.0
2017-Nov-27 15:00N 52°28' E 004°35'0 0.0
2017-Nov-27 14:27N 52°28' E 004°35'0 0.0
2017-Nov-27 13:57N 52°28' E 004°35'0 0.0
2017-Nov-27 13:30N 52°28' E 004°35'0 0.0
2017-Nov-27 12:57N 52°28' E 004°35'0 0.0
2017-Nov-27 12:06N 52°28' E 004°35'0 0.0
2017-Nov-27 11:54N 52°28' E 004°35'0 0.0
2017-Nov-27 11:21N 52°28' E 004°35'0 0.0
2017-Nov-27 10:03N 52°28' E 004°35'0 0.0
2017-Nov-27 10:00N 52°28' E 004°35'0 0.0
2017-Nov-27 09:15N 52°28' E 004°35'0 0.0
2017-Nov-27 08:57N 52°28' E 004°35'0 0.0
2017-Nov-27 07:39N 52°28' E 004°35'0 0.0
2017-Nov-27 07:27N 52°28' E 004°35'0 0.0
2017-Nov-27 06:48N 52°28' E 004°35'0 0.0
2017-Nov-27 06:30N 52°28' E 004°35'0 0.0
2017-Nov-27 06:00N 52°28' E 004°35'0 0.0
2017-Nov-27 05:27N 52°28' E 004°35'0 0.0
2017-Nov-27 04:45N 52°28' E 004°35'0 0.0
2017-Nov-27 04:28N 52°28' E 004°35'0 0.7
2017-Nov-27 04:01N 52°28' E 004°34'2 4.8
2017-Nov-27 03:30N 52°28' E 004°30'4 8.0
2017-Nov-27 03:00N 52°29' E 004°24'5 9.1
2017-Nov-27 02:31N 52°30' E 004°17'711.0
2017-Nov-27 01:55N 52°30' E 004°06'511.3
2017-Nov-27 01:30N 52°30' E 003°58'610.6
2017-Nov-27 00:57N 52°29' E 003°49'2 4.0
2017-Nov-27 00:30N 52°28' E 003°47'1 0.2
2017-Nov-26 18:37N 52°27' E 003°48'0 0.1
2017-Nov-26 17:22N 52°27' E 003°48'0 0.0
2017-Nov-26 10:16N 52°27' E 003°48'0 0.1
2017-Nov-26 09:58N 52°27' E 003°48'0 0.1
2017-Nov-26 08:13N 52°27' E 003°48'0 0.0
2017-Nov-25 20:10N 52°27' E 003°48'0 0.0
2017-Nov-25 17:34N 52°27' E 003°48'0 0.1
2017-Nov-25 17:25N 52°27' E 003°48'0 0.1
2017-Nov-25 16:58N 52°27' E 003°48'0 0.1
2017-Nov-25 16:28N 52°27' E 003°48'0 0.1
2017-Nov-25 15:58N 52°27' E 003°48'0 0.0
2017-Nov-25 08:40N 52°27' E 003°48'0 0.1
2017-Nov-25 08:10N 52°27' E 003°48'0 0.0
2017-Nov-25 06:13N 52°27' E 003°48'0 0.0
2017-Nov-25 05:52N 52°27' E 003°48'0 0.0
2017-Nov-25 05:28N 52°27' E 003°48'0 0.1
2017-Nov-25 04:58N 52°27' E 003°48'0 0.2
2017-Nov-25 04:28N 52°27' E 003°48'0 0.1
2017-Nov-25 03:58N 52°27' E 003°48'0 0.2
2017-Nov-25 03:18N 52°27' E 003°47'0 0.4
2017-Nov-25 02:55N 52°27' E 003°47'2 5.5
2017-Nov-25 02:30N 52°27' E 003°43'6311.0
2017-Nov-24 20:48N 51°43' E 002°31'411.8
2017-Nov-24 20:29N 51°40' E 002°27'612.1
2017-Nov-24 20:00N 51°36' E 002°21'612.4
2017-Nov-24 19:30N 51°31' E 002°14'612.6
2017-Nov-24 19:00N 51°26' E 002°07'612.7
2017-Nov-24 18:30N 51°21' E 002°01'612.9
2017-Nov-24 18:00N 51°17' E 001°54'713.1
2017-Nov-24 17:30N 51°12' E 001°47'713.3
2017-Nov-24 17:00N 51°06' E 001°41'713.6
2017-Nov-24 16:28N 51°00' E 001°34'613.9
2017-Nov-24 16:00N 50°55' E 001°28'5512.3
2017-Nov-24 11:30N 50°22' E 000°18'713.8
2017-Nov-24 11:00N 50°20' E 000°08'913.6
2017-Nov-24 10:21N 50°18' W 000°05'  
Track history (hours):
 
Tides and Currents Weather Stations Pressure Air Temp Water Temp Dewpoint Dewpoint Depression Visibility Wind Speed Wind Dir Waves Ship Positions

Yong An 1

Last reported at 2017-Dec-04 10:09 UTC. Time now 2017-Dec-15 16:07 UTC.
Position N 52°26' E 003°35'.
Warning: this ship's position is 11 days out of date.

Length 228 m; draft 7.6 m.

Type: Cargo ship. MMSI: 374092000.

Date/timePositionNaut miles runAvg speedWind from/ knotsBaromVisibWave heightAir tempDewpointWater temp
2017-Dec-04 10:09N 52°26' E 003°35'313.6
2017-Dec-04 09:57N 52°27' E 003°39'613.6
2017-Dec-04 09:30N 52°31' E 003°47'612.6
2017-Dec-04 09:00N 52°31' E 003°57'612.5
2017-Dec-04 08:30N 52°31' E 004°07'612.2
2017-Dec-04 08:00N 52°30' E 004°17'510.6
2017-Dec-04 07:30N 52°29' E 004°26'5 9.4
2017-Dec-04 07:00N 52°28' E 004°33'2 4.2
2017-Dec-04 06:30N 52°28' E 004°37'0 1.0
2017-Dec-04 06:00N 52°28' E 004°37'2 4.8
2017-Dec-04 05:30N 52°27' E 004°41'3 5.9
2017-Dec-04 05:00N 52°26' E 004°45'2 4.4
2017-Dec-04 04:31N 52°25' E 004°49'0 0.9
2017-Dec-04 04:00N 52°25' E 004°49'0 0.0
2017-Dec-04 03:30N 52°25' E 004°49'0 0.0
2017-Dec-04 03:00N 52°25' E 004°49'0 0.0
2017-Dec-04 02:30N 52°25' E 004°49'0 0.0
2017-Dec-04 02:00N 52°25' E 004°49'0 0.0
2017-Dec-04 01:30N 52°25' E 004°49'0 0.0
2017-Dec-04 01:00N 52°25' E 004°49'0 0.0
2017-Dec-04 00:30N 52°25' E 004°49'0 0.0
2017-Dec-04 00:00N 52°25' E 004°49'0 0.0
2017-Dec-03 23:30N 52°25' E 004°49'0 0.0
2017-Dec-03 23:00N 52°25' E 004°49'0 0.0
2017-Dec-03 22:30N 52°25' E 004°49'0 0.0
2017-Dec-03 22:00N 52°25' E 004°49'0 0.0
2017-Dec-03 21:27N 52°25' E 004°49'0 0.0
2017-Dec-03 21:00N 52°25' E 004°49'0 0.0
2017-Dec-03 20:30N 52°25' E 004°49'0 0.0
2017-Dec-03 20:00N 52°25' E 004°49'0 0.0
2017-Dec-03 19:30N 52°25' E 004°49'0 0.0
2017-Dec-03 19:00N 52°25' E 004°49'0 0.0
2017-Dec-03 18:27N 52°25' E 004°49'0 0.0
2017-Dec-03 18:00N 52°25' E 004°49'0 0.0
2017-Dec-03 17:30N 52°25' E 004°49'0 0.0
2017-Dec-03 17:00N 52°25' E 004°49'0 0.0
2017-Dec-03 16:30N 52°25' E 004°49'0 0.0
2017-Dec-03 16:00N 52°25' E 004°49'0 0.0
2017-Dec-03 15:24N 52°25' E 004°49'0 0.0
2017-Dec-03 15:00N 52°25' E 004°49'0 0.0
2017-Dec-03 14:30N 52°25' E 004°49'0 0.0
2017-Dec-03 14:00N 52°25' E 004°49'0 0.0
2017-Dec-03 13:30N 52°25' E 004°49'0 0.0
2017-Dec-03 12:57N 52°25' E 004°49'0 0.0
2017-Dec-03 12:30N 52°25' E 004°49'0 0.0
2017-Dec-03 12:00N 52°25' E 004°49'0 0.0
2017-Dec-03 11:30N 52°25' E 004°49'0 0.0
2017-Dec-03 11:00N 52°25' E 004°49'0 0.0
2017-Dec-03 10:30N 52°25' E 004°49'0 0.0
2017-Dec-03 10:00N 52°25' E 004°49'0 0.0
2017-Dec-03 09:30N 52°25' E 004°49'0 0.0
2017-Dec-03 08:57N 52°25' E 004°49'0 0.0
2017-Dec-03 08:30N 52°25' E 004°49'0 0.0
2017-Dec-03 07:57N 52°25' E 004°49'0 0.0
2017-Dec-03 07:27N 52°25' E 004°49'0 0.1
2017-Dec-03 07:00N 52°25' E 004°49'0 0.0
2017-Dec-03 06:30N 52°25' E 004°49'0 0.0
2017-Dec-03 06:00N 52°25' E 004°49'0 0.0
2017-Dec-03 05:30N 52°25' E 004°49'0 0.0
2017-Dec-03 05:00N 52°25' E 004°49'0 0.0
2017-Dec-03 04:30N 52°25' E 004°49'0 0.0
2017-Dec-03 03:57N 52°25' E 004°49'0 0.0
2017-Dec-03 03:24N 52°25' E 004°49'0 0.0
2017-Dec-03 03:00N 52°25' E 004°49'0 0.0
2017-Dec-03 02:30N 52°25' E 004°49'0 0.0
2017-Dec-03 01:57N 52°25' E 004°49'0 0.0
2017-Dec-03 01:30N 52°25' E 004°49'0 0.0
2017-Dec-03 01:00N 52°25' E 004°49'0 0.0
2017-Dec-03 00:30N 52°25' E 004°49'0 0.0
2017-Dec-03 00:00N 52°25' E 004°49'0 0.0
2017-Dec-02 23:30N 52°25' E 004°49'0 0.0
2017-Dec-02 23:00N 52°25' E 004°49'0 0.0
2017-Dec-02 22:30N 52°25' E 004°49'0 0.0
2017-Dec-02 22:00N 52°25' E 004°49'0 0.0
2017-Dec-02 21:27N 52°25' E 004°49'0 0.0
2017-Dec-02 21:00N 52°25' E 004°49'0 0.0
2017-Dec-02 20:30N 52°25' E 004°49'0 0.0
2017-Dec-02 20:00N 52°25' E 004°49'0 0.0
2017-Dec-02 19:30N 52°25' E 004°49'0 0.0
2017-Dec-02 18:51N 52°25' E 004°49'0 0.0
2017-Dec-02 18:30N 52°25' E 004°49'0 0.0
2017-Dec-02 17:57N 52°25' E 004°49'0 0.0
2017-Dec-02 17:30N 52°25' E 004°49'0 0.0
2017-Dec-02 17:00N 52°25' E 004°49'0 0.0
2017-Dec-02 16:30N 52°25' E 004°49'0 0.0
2017-Dec-02 16:00N 52°25' E 004°49'0 0.0
2017-Dec-02 15:30N 52°25' E 004°49'0 0.0
2017-Dec-02 15:00N 52°25' E 004°49'0 0.0
2017-Dec-02 14:30N 52°25' E 004°49'0 0.0
2017-Dec-02 14:00N 52°25' E 004°49'0 0.0
2017-Dec-02 13:30N 52°25' E 004°49'0 0.0
2017-Dec-02 13:00N 52°25' E 004°49'0 0.0
2017-Dec-02 12:27N 52°25' E 004°49'0 0.0
2017-Dec-02 12:00N 52°25' E 004°49'0 0.0
2017-Dec-02 11:30N 52°25' E 004°49'0 0.0
2017-Dec-02 11:00N 52°25' E 004°49'0 0.0
2017-Dec-02 10:30N 52°25' E 004°49'0 0.0
2017-Dec-02 10:00N 52°25' E 004°49'0 0.0
2017-Dec-02 09:30N 52°25' E 004°49'0 0.0
2017-Dec-02 09:00N 52°25' E 004°49'0 0.0
2017-Dec-02 08:30N 52°25' E 004°49'0 0.0
2017-Dec-02 08:00N 52°25' E 004°49'0 0.0
2017-Dec-02 07:30N 52°25' E 004°49'0 0.0
2017-Dec-02 07:00N 52°25' E 004°49'0 0.0
2017-Dec-02 06:30N 52°25' E 004°49'0 0.0
2017-Dec-02 06:00N 52°25' E 004°49'0 0.0
2017-Dec-02 05:30N 52°25' E 004°49'0 0.0
2017-Dec-02 05:00N 52°25' E 004°49'0 0.0
2017-Dec-02 04:30N 52°25' E 004°49'0 0.0
2017-Dec-02 04:00N 52°25' E 004°49'0 0.0
2017-Dec-02 03:30N 52°25' E 004°49'0 0.0
2017-Dec-02 03:00N 52°25' E 004°49'0 0.0
2017-Dec-02 02:30N 52°25' E 004°49'0 0.0
2017-Dec-02 01:57N 52°25' E 004°49'0 0.0
2017-Dec-02 01:30N 52°25' E 004°49'0 0.0
2017-Dec-02 01:00N 52°25' E 004°49'0 0.0
2017-Dec-02 00:27N 52°25' E 004°49'0 0.0
2017-Dec-02 00:00N 52°25' E 004°49'0 0.0
2017-Dec-01 23:30N 52°25' E 004°49'0 0.0
2017-Dec-01 23:00N 52°25' E 004°49'0 0.0
2017-Dec-01 22:30N 52°25' E 004°49'0 0.0
2017-Dec-01 22:00N 52°25' E 004°49'0 0.0
2017-Dec-01 21:27N 52°25' E 004°49'0 0.0
2017-Dec-01 21:00N 52°25' E 004°49'0 0.0
2017-Dec-01 20:30N 52°25' E 004°49'0 0.0
2017-Dec-01 20:00N 52°25' E 004°49'0 0.0
2017-Dec-01 19:30N 52°25' E 004°49'0 0.0
2017-Dec-01 19:00N 52°25' E 004°49'0 0.0
2017-Dec-01 18:27N 52°25' E 004°49'0 0.0
2017-Dec-01 18:00N 52°25' E 004°49'0 0.0
2017-Dec-01 17:30N 52°25' E 004°49'0 0.0
2017-Dec-01 17:00N 52°25' E 004°49'0 0.0
2017-Dec-01 16:30N 52°25' E 004°49'0 0.0
2017-Dec-01 15:57N 52°25' E 004°49'0 0.0
2017-Dec-01 15:30N 52°25' E 004°49'0 0.0
2017-Dec-01 15:00N 52°25' E 004°49'0 0.0
2017-Dec-01 14:27N 52°25' E 004°49'0 0.0
2017-Dec-01 14:00N 52°25' E 004°49'0 0.0
2017-Dec-01 13:30N 52°25' E 004°49'0 0.0
2017-Dec-01 13:00N 52°25' E 004°49'0 0.0
2017-Dec-01 12:30N 52°25' E 004°49'0 0.0
2017-Dec-01 12:00N 52°25' E 004°49'0 0.0
2017-Dec-01 11:30N 52°25' E 004°49'0 0.0
2017-Dec-01 11:00N 52°25' E 004°49'0 0.0
2017-Dec-01 10:30N 52°25' E 004°49'0 0.0
2017-Dec-01 10:00N 52°25' E 004°49'0 0.0
2017-Dec-01 09:30N 52°25' E 004°49'0 0.0
2017-Dec-01 09:00N 52°25' E 004°49'0 0.0
2017-Dec-01 08:30N 52°25' E 004°49'0 0.0
2017-Dec-01 08:00N 52°25' E 004°49'0 0.0
2017-Dec-01 07:30N 52°25' E 004°49'0 0.0
2017-Dec-01 07:00N 52°25' E 004°49'0 0.0
2017-Dec-01 06:30N 52°25' E 004°49'0 0.0
2017-Dec-01 06:00N 52°25' E 004°49'0 0.0
2017-Dec-01 05:30N 52°25' E 004°49'0 0.0
2017-Dec-01 04:54N 52°25' E 004°49'0 0.0
2017-Dec-01 04:15N 52°25' E 004°49'0 0.0
2017-Dec-01 04:00N 52°25' E 004°49'0 0.0
2017-Dec-01 03:30N 52°25' E 004°49'0 0.0
2017-Dec-01 03:00N 52°25' E 004°49'0 0.0
2017-Dec-01 02:30N 52°25' E 004°49'0 0.0
2017-Dec-01 02:00N 52°25' E 004°49'0 0.0
2017-Dec-01 01:30N 52°25' E 004°49'0 0.0
2017-Dec-01 01:00N 52°25' E 004°49'0 0.0
2017-Dec-01 00:30N 52°25' E 004°49'0 0.0
2017-Nov-30 23:57N 52°25' E 004°49'0 0.0
2017-Nov-30 23:30N 52°25' E 004°49'0 0.0
2017-Nov-30 23:00N 52°25' E 004°49'0 0.0
2017-Nov-30 22:30N 52°25' E 004°49'0 0.0
2017-Nov-30 21:54N 52°25' E 004°49'0 0.0
2017-Nov-30 21:30N 52°25' E 004°49'0 0.0
2017-Nov-30 21:00N 52°25' E 004°49'0 0.0
2017-Nov-30 20:30N 52°25' E 004°49'0 0.0
2017-Nov-30 20:00N 52°25' E 004°49'0 0.0
2017-Nov-30 19:30N 52°25' E 004°49'0 0.0
2017-Nov-30 19:00N 52°25' E 004°49'0 0.0
2017-Nov-30 18:30N 52°25' E 004°49'0 0.0
2017-Nov-30 17:54N 52°25' E 004°49'0 0.0
2017-Nov-30 17:30N 52°25' E 004°49'0 0.0
2017-Nov-30 17:00N 52°25' E 004°49'0 0.0
2017-Nov-30 16:30N 52°25' E 004°49'0 0.0
2017-Nov-30 16:00N 52°25' E 004°49'0 0.0
2017-Nov-30 15:30N 52°25' E 004°49'0 0.0
2017-Nov-30 14:57N 52°25' E 004°49'0 0.0
2017-Nov-30 14:30N 52°25' E 004°49'0 0.0
2017-Nov-30 14:00N 52°25' E 004°49'0 0.0
2017-Nov-30 13:30N 52°25' E 004°49'0 0.0
2017-Nov-30 13:00N 52°25' E 004°49'0 0.0
2017-Nov-30 12:30N 52°25' E 004°49'0 0.0
2017-Nov-30 11:51N 52°25' E 004°49'0 0.0
2017-Nov-30 11:18N 52°25' E 004°49'0 0.2
2017-Nov-30 10:36N 52°25' E 004°49'0 0.0
2017-Nov-30 10:30N 52°25' E 004°49'0 0.0
2017-Nov-30 10:00N 52°25' E 004°49'0 0.0
2017-Nov-30 09:30N 52°25' E 004°49'0 0.0
2017-Nov-30 08:54N 52°25' E 004°49'0 0.0
2017-Nov-30 07:12N 52°25' E 004°49'0 0.0
2017-Nov-30 06:54N 52°25' E 004°49'0 0.0
2017-Nov-30 06:24N 52°25' E 004°49'0 0.0
2017-Nov-30 05:48N 52°25' E 004°49'0 0.0
2017-Nov-30 04:39N 52°25' E 004°49'0 0.0
2017-Nov-30 04:27N 52°25' E 004°49'0 0.0
2017-Nov-30 03:36N 52°25' E 004°49'0 0.0
2017-Nov-30 03:21N 52°25' E 004°49'0 0.0
2017-Nov-30 02:57N 52°25' E 004°49'0 0.0
2017-Nov-30 02:15N 52°25' E 004°49'0 0.0
2017-Nov-30 01:57N 52°25' E 004°49'0 0.0
2017-Nov-30 01:27N 52°25' E 004°49'0 0.0
2017-Nov-30 00:57N 52°25' E 004°49'0 0.0
2017-Nov-30 00:21N 52°25' E 004°49'0 0.0
2017-Nov-29 23:57N 52°25' E 004°49'0 0.0
2017-Nov-29 23:30N 52°25' E 004°49'0 0.0
2017-Nov-29 22:58N 52°25' E 004°49'0 0.0
2017-Nov-29 22:28N 52°25' E 004°49'0 0.0
2017-Nov-29 21:58N 52°25' E 004°49'0 0.0
2017-Nov-29 21:28N 52°25' E 004°49'0 0.0
2017-Nov-29 20:58N 52°25' E 004°49'0 0.0
2017-Nov-29 20:28N 52°25' E 004°49'0 0.0
2017-Nov-29 19:55N 52°25' E 004°49'0 0.0
2017-Nov-29 19:28N 52°25' E 004°49'0 0.0
2017-Nov-29 18:58N 52°25' E 004°49'0 0.0
2017-Nov-29 18:28N 52°25' E 004°49'0 0.0
2017-Nov-29 17:58N 52°25' E 004°49'0 0.0
2017-Nov-29 17:28N 52°25' E 004°49'0 0.0
2017-Nov-29 16:58N 52°25' E 004°49'0 0.0
2017-Nov-29 16:28N 52°25' E 004°49'0 0.0
2017-Nov-29 15:58N 52°25' E 004°49'0 0.0
2017-Nov-29 15:25N 52°25' E 004°49'0 0.0
2017-Nov-29 14:52N 52°25' E 004°49'0 0.0
2017-Nov-29 14:28N 52°25' E 004°49'0 0.0
2017-Nov-29 13:55N 52°25' E 004°49'0 0.0
2017-Nov-29 13:25N 52°25' E 004°49'0 0.0
2017-Nov-29 12:58N 52°25' E 004°49'0 0.0
2017-Nov-29 12:28N 52°25' E 004°49'0 0.0
2017-Nov-29 11:52N 52°25' E 004°49'0 0.0
2017-Nov-29 11:25N 52°25' E 004°49'0 0.0
2017-Nov-29 10:52N 52°25' E 004°49'0 0.0
2017-Nov-29 10:28N 52°25' E 004°49'0 0.0
2017-Nov-29 09:25N 52°25' E 004°49'0 0.0
2017-Nov-29 08:46N 52°25' E 004°49'0 0.0
2017-Nov-29 08:07N 52°25' E 004°49'0 0.0
2017-Nov-29 07:22N 52°25' E 004°49'0 0.0
2017-Nov-29 06:40N 52°25' E 004°49'0 0.0
2017-Nov-29 06:22N 52°25' E 004°49'0 0.0
2017-Nov-29 05:52N 52°25' E 004°49'0 0.0
2017-Nov-29 05:07N 52°25' E 004°49'0 0.0
2017-Nov-29 04:55N 52°25' E 004°49'0 0.0
2017-Nov-29 04:28N 52°25' E 004°49'0 0.0
2017-Nov-29 03:58N 52°25' E 004°49'0 0.0
2017-Nov-29 03:25N 52°25' E 004°49'0 0.0
2017-Nov-29 02:49N 52°25' E 004°49'0 0.0
2017-Nov-29 02:28N 52°25' E 004°49'0 0.0
2017-Nov-29 01:43N 52°25' E 004°49'0 0.0
2017-Nov-29 01:28N 52°25' E 004°49'0 0.0
2017-Nov-29 00:58N 52°25' E 004°49'0 0.0
2017-Nov-28 23:22N 52°25' E 004°49'0 0.0
2017-Nov-28 22:37N 52°25' E 004°49'0 0.0
2017-Nov-28 21:31N 52°25' E 004°49'0 0.0
2017-Nov-28 21:10N 52°25' E 004°49'0 0.0
2017-Nov-28 20:01N 52°25' E 004°49'0 0.0
2017-Nov-28 19:55N 52°25' E 004°49'0 0.0
2017-Nov-28 19:22N 52°25' E 004°49'0 0.0
2017-Nov-28 18:55N 52°25' E 004°49'0 0.0
2017-Nov-28 18:19N 52°25' E 004°49'0 0.0
2017-Nov-28 17:55N 52°25' E 004°49'0 0.0
2017-Nov-28 17:28N 52°25' E 004°49'0 0.0
2017-Nov-28 16:55N 52°25' E 004°49'0 0.0
2017-Nov-28 16:22N 52°25' E 004°49'0 0.0
2017-Nov-28 14:55N 52°25' E 004°49'0 0.0
2017-Nov-28 14:22N 52°25' E 004°49'0 0.0
2017-Nov-28 13:55N 52°25' E 004°49'0 0.0
2017-Nov-28 13:16N 52°25' E 004°49'0 0.0
2017-Nov-28 12:55N 52°25' E 004°49'0 0.0
2017-Nov-28 12:22N 52°25' E 004°49'0 0.0
2017-Nov-28 11:43N 52°25' E 004°49'0 0.0
2017-Nov-28 11:28N 52°25' E 004°49'0 0.0
2017-Nov-28 10:58N 52°25' E 004°49'0 0.0
2017-Nov-28 10:28N 52°25' E 004°49'0 0.2
2017-Nov-28 10:00N 52°25' E 004°49'2 3.2
2017-Nov-28 09:31N 52°26' E 004°46'3 5.6
2017-Nov-28 09:00N 52°27' E 004°42'3 5.9
2017-Nov-28 08:30N 52°28' E 004°38'1 1.6
2017-Nov-28 08:00N 52°28' E 004°36'0 0.3
2017-Nov-28 07:30N 52°28' E 004°36'1 1.7
2017-Nov-28 07:00N 52°28' E 004°35'0 0.1
2017-Nov-28 06:21N 52°28' E 004°35'0 0.0
2017-Nov-28 05:15N 52°28' E 004°35'0 0.0
2017-Nov-28 04:30N 52°28' E 004°35'0 0.0
2017-Nov-28 04:00N 52°28' E 004°35'0 0.0
2017-Nov-28 03:30N 52°28' E 004°35'0 0.0
2017-Nov-28 02:57N 52°28' E 004°35'0 0.0
2017-Nov-28 02:18N 52°28' E 004°35'0 0.0
2017-Nov-28 01:45N 52°28' E 004°35'0 0.0
2017-Nov-28 01:00N 52°28' E 004°35'0 0.0
2017-Nov-28 00:24N 52°28' E 004°35'0 0.0
2017-Nov-27 23:51N 52°28' E 004°35'0 0.0
2017-Nov-27 23:27N 52°28' E 004°35'0 0.0
2017-Nov-27 22:57N 52°28' E 004°35'0 0.0
2017-Nov-27 22:30N 52°28' E 004°35'0 0.0
2017-Nov-27 22:00N 52°28' E 004°35'0 0.0
2017-Nov-27 21:12N 52°28' E 004°35'0 0.0
2017-Nov-27 20:51N 52°28' E 004°35'0 0.0
2017-Nov-27 20:30N 52°28' E 004°35'0 0.0
2017-Nov-27 19:54N 52°28' E 004°35'0 0.0
2017-Nov-27 19:21N 52°28' E 004°35'0 0.0
2017-Nov-27 19:00N 52°28' E 004°35'0 0.0
2017-Nov-27 18:21N 52°28' E 004°35'0 0.0
2017-Nov-27 17:57N 52°28' E 004°35'0 0.0
2017-Nov-27 17:18N 52°28' E 004°35'0 0.0
2017-Nov-27 16:57N 52°28' E 004°35'0 0.0
2017-Nov-27 16:27N 52°28' E 004°35'0 0.0
2017-Nov-27 15:42N 52°28' E 004°35'0 0.0
2017-Nov-27 15:15N 52°28' E 004°35'0 0.0
2017-Nov-27 15:00N 52°28' E 004°35'0 0.0
2017-Nov-27 14:27N 52°28' E 004°35'0 0.0
2017-Nov-27 13:57N 52°28' E 004°35'0 0.0
2017-Nov-27 13:30N 52°28' E 004°35'0 0.0
2017-Nov-27 12:57N 52°28' E 004°35'0 0.0
2017-Nov-27 12:06N 52°28' E 004°35'0 0.0
2017-Nov-27 11:54N 52°28' E 004°35'0 0.0
2017-Nov-27 11:21N 52°28' E 004°35'0 0.0
2017-Nov-27 10:03N 52°28' E 004°35'0 0.0
2017-Nov-27 10:00N 52°28' E 004°35'0 0.0
2017-Nov-27 09:15N 52°28' E 004°35'0 0.0
2017-Nov-27 08:57N 52°28' E 004°35'0 0.0
2017-Nov-27 07:39N 52°28' E 004°35'0 0.0
2017-Nov-27 07:27N 52°28' E 004°35'0 0.0
2017-Nov-27 06:48N 52°28' E 004°35'0 0.0
2017-Nov-27 06:30N 52°28' E 004°35'0 0.0
2017-Nov-27 06:00N 52°28' E 004°35'0 0.0
2017-Nov-27 05:27N 52°28' E 004°35'0 0.0
2017-Nov-27 04:45N 52°28' E 004°35'0 0.0
2017-Nov-27 04:28N 52°28' E 004°35'0 0.7
2017-Nov-27 04:01N 52°28' E 004°34'2 4.8
2017-Nov-27 03:30N 52°28' E 004°30'4 8.0
2017-Nov-27 03:00N 52°29' E 004°24'5 9.1
2017-Nov-27 02:31N 52°30' E 004°17'711.0
2017-Nov-27 01:55N 52°30' E 004°06'511.3
2017-Nov-27 01:30N 52°30' E 003°58'610.6
2017-Nov-27 00:57N 52°29' E 003°49'2 4.0
2017-Nov-27 00:30N 52°28' E 003°47'1 0.2
2017-Nov-26 18:37N 52°27' E 003°48'0 0.1
2017-Nov-26 17:22N 52°27' E 003°48'0 0.0
2017-Nov-26 10:16N 52°27' E 003°48'0 0.1
2017-Nov-26 09:58N 52°27' E 003°48'0 0.1
2017-Nov-26 08:13N 52°27' E 003°48'0 0.0
2017-Nov-25 20:10N 52°27' E 003°48'0 0.0
2017-Nov-25 17:34N 52°27' E 003°48'0 0.1
2017-Nov-25 17:25N 52°27' E 003°48'0 0.1
2017-Nov-25 16:58N 52°27' E 003°48'0 0.1
2017-Nov-25 16:28N 52°27' E 003°48'0 0.1
2017-Nov-25 15:58N 52°27' E 003°48'0 0.0
2017-Nov-25 08:40N 52°27' E 003°48'0 0.1
2017-Nov-25 08:10N 52°27' E 003°48'0 0.0
2017-Nov-25 06:13N 52°27' E 003°48'0 0.0
2017-Nov-25 05:52N 52°27' E 003°48'0 0.0
2017-Nov-25 05:28N 52°27' E 003°48'0 0.1
2017-Nov-25 04:58N 52°27' E 003°48'0 0.2
2017-Nov-25 04:28N 52°27' E 003°48'0 0.1
2017-Nov-25 03:58N 52°27' E 003°48'0 0.2
2017-Nov-25 03:18N 52°27' E 003°47'0 0.4
2017-Nov-25 02:55N 52°27' E 003°47'2 5.5
2017-Nov-25 02:30N 52°27' E 003°43'6311.0
2017-Nov-24 20:48N 51°43' E 002°31'411.8
2017-Nov-24 20:29N 51°40' E 002°27'612.1
2017-Nov-24 20:00N 51°36' E 002°21'612.4
2017-Nov-24 19:30N 51°31' E 002°14'612.6
2017-Nov-24 19:00N 51°26' E 002°07'612.7
2017-Nov-24 18:30N 51°21' E 002°01'612.9
2017-Nov-24 18:00N 51°17' E 001°54'713.1
2017-Nov-24 17:30N 51°12' E 001°47'713.3
2017-Nov-24 17:00N 51°06' E 001°41'713.6
2017-Nov-24 16:28N 51°00' E 001°34'613.9
2017-Nov-24 16:00N 50°55' E 001°28'5512.3
2017-Nov-24 11:30N 50°22' E 000°18'713.8
2017-Nov-24 11:00N 50°20' E 000°08'913.6
2017-Nov-24 10:21N 50°18' W 000°05'  

Dump ship's entire track history